Time;durP1;ratioP1;P1;durP2;ratioP2;P2;SDS_P1;SDS_P2;PMS_P1;PMS_P2;Temp;Humidity;BMP_temperature;BMP_pressure;BME280_temperature;BME280_humidity;BME280_pressure;Samples;Min_cycle;Max_cycle;Signal;HPM_P1;HPM_P2
2023/11/20 00:00:28;;;;;;;8.87;4.97;;;;;;;10.22;54.95;100923.41;5111250;28;20336;-84
2023/11/20 00:03:23;;;;;;;7.78;5.13;;;;;;;9.95;55.38;100918.88;5100905;28;20339;-84
2023/11/20 00:06:17;;;;;;;10.53;4.67;;;;;;;9.90;56.03;100921.69;5086894;28;20519;-84
2023/11/20 00:09:12;;;;;;;6.30;4.40;;;;;;;10.10;55.79;100913.09;5093948;28;20039;-84
2023/11/20 00:12:07;;;;;;;7.37;4.13;;;;;;;10.42;54.55;100914.78;5100668;28;20051;-85
2023/11/20 00:14:59;;;;;;;11.82;4.45;;;;;;;10.29;54.39;100919.19;5086651;28;20269;-83
2023/11/20 00:17:51;;;;;;;4.97;3.95;;;;;;;10.40;54.30;100910.78;5086055;28;20069;-83
2023/11/20 00:20:45;;;;;;;7.38;4.05;;;;;;;10.26;53.84;100914.34;5095595;28;20055;-84
2023/11/20 00:23:40;;;;;;;6.80;3.55;;;;;;;10.35;53.59;100910.91;5114938;28;20043;-84
2023/11/20 00:26:34;;;;;;;3.50;2.60;;;;;;;9.99;54.32;100903.56;5099827;28;20051;-85
2023/11/20 00:29:26;;;;;;;6.83;3.80;;;;;;;9.99;55.03;100908.19;5098882;28;20043;-84
2023/11/20 00:32:21;;;;;;;8.98;3.83;;;;;;;9.84;54.49;100902.00;5093509;28;20424;-83
2023/11/20 00:35:16;;;;;;;5.05;4.05;;;;;;;9.87;54.43;100900.56;5100192;28;20043;-83
2023/11/20 00:38:10;;;;;;;5.60;3.70;;;;;;;9.91;54.88;100906.97;5107130;28;20051;-85
2023/11/20 00:41:02;;;;;;;7.27;4.20;;;;;;;9.93;53.85;100896.63;5094401;28;20047;-84
2023/11/20 00:43:57;;;;;;;8.35;3.92;;;;;;;9.92;54.41;100900.44;5093363;28;20055;-84
2023/11/20 00:46:51;;;;;;;5.03;4.05;;;;;;;9.70;54.40;100892.25;5086058;28;20047;-85
2023/11/20 00:49:41;;;;;;;6.72;3.50;;;;;;;9.74;54.12;100894.06;5112321;28;20051;-85
2023/11/20 00:52:35;;;;;;;5.95;3.97;;;;;;;9.65;55.04;100893.16;5099989;28;20051;-85
2023/11/20 00:55:29;;;;;;;6.40;4.00;;;;;;;9.81;54.06;100889.00;5093085;28;20051;-84
2023/11/20 00:58:30;;;;;;;4.75;2.80;;;;;;;9.91;53.83;100890.69;5092777;28;20043;-84
2023/11/20 01:01:22;;;;;;;6.60;3.85;;;;;;;9.93;53.71;100893.91;5092676;28;20062;-83
2023/11/20 01:04:17;;;;;;;6.80;3.90;;;;;;;9.88;53.97;100896.75;5099485;28;20532;-85
2023/11/20 01:07:11;;;;;;;3.57;2.90;;;;;;;10.01;53.70;100911.38;5085290;28;20047;-83
2023/11/20 01:10:06;;;;;;;3.77;2.90;;;;;;;9.91;55.04;100906.97;5096218;28;20122;-83
2023/11/20 01:13:01;;;;;;;7.20;3.70;;;;;;;9.96;53.89;100906.06;5083701;28;20055;-83
2023/11/20 01:15:55;;;;;;;5.93;3.20;;;;;;;9.68;54.53;100908.03;5093450;28;20051;-83
2023/11/20 01:18:47;;;;;;;5.43;3.60;;;;;;;9.29;56.12;100911.31;5093024;28;20043;-83
2023/11/20 01:21:42;;;;;;;6.93;4.22;;;;;;;9.35;55.94;100905.44;5099340;28;20043;-83
2023/11/20 01:24:37;;;;;;;5.13;2.50;;;;;;;9.05;56.55;100914.19;5113506;28;20055;-83
2023/11/20 01:27:29;;;;;;;5.43;3.70;;;;;;;9.05;56.57;100910.66;5084711;28;20508;-83
2023/11/20 01:30:23;;;;;;;6.70;3.75;;;;;;;8.92;56.88;100912.28;5109581;28;20500;-84
2023/11/20 01:33:13;;;;;;;6.17;4.37;;;;;;;8.92;56.34;100912.28;5113458;28;20051;-82
2023/11/20 01:36:06;;;;;;;6.65;4.00;;;;;;;8.88;56.33;100919.41;5098864;28;20043;-84
2023/11/20 01:38:56;;;;;;;8.00;3.38;;;;;;;9.25;55.31;100911.06;5092994;28;20039;-83
2023/11/20 01:41:45;;;;;;;8.02;5.45;;;;;;;9.08;55.81;100907.38;5099089;28;20070;-83
2023/11/20 01:44:33;;;;;;;6.03;3.92;;;;;;;9.35;54.93;100904.66;5092919;28;20043;-82
2023/11/20 01:47:29;;;;;;;6.10;4.03;;;;;;;9.22;55.02;100894.59;5091802;28;20047;-83
2023/11/20 01:50:21;;;;;;;8.73;3.60;;;;;;;9.42;54.70;100900.44;5081263;28;20043;-83
2023/11/20 01:53:13;;;;;;;5.68;4.25;;;;;;;9.08;55.87;100900.03;5098707;28;20396;-84
2023/11/20 01:56:08;;;;;;;5.75;3.65;;;;;;;9.07;56.19;100903.03;5092844;28;20051;-85
2023/11/20 01:59:06;;;;;;;5.22;3.42;;;;;;;9.03;55.27;100900.13;5084140;28;20067;-85
2023/11/20 02:01:59;;;;;;;9.48;4.35;;;;;;;9.05;57.00;100902.53;5098692;28;20042;-84
2023/11/20 02:04:59;;;;;;;7.00;4.20;;;;;;;9.02;56.10;100895.81;5098646;28;20071;-85
2023/11/20 02:07:54;;;;;;;7.20;4.47;;;;;;;9.04;56.35;100904.44;5098247;28;20055;-84
2023/11/20 02:10:46;;;;;;;7.22;4.57;;;;;;;9.10;55.68;100902.44;5093462;28;20055;-84
2023/11/20 02:13:41;;;;;;;10.07;6.00;;;;;;;8.90;56.91;100892.78;5098497;28;20401;-85
2023/11/20 02:16:31;;;;;;;;;;;;;;;9.00;56.38;100895.28;5084694;28;20043;-84
2023/11/20 02:19:23;;;;;;;7.88;4.88;;;;;;;9.04;56.92;100893.59;5083242;28;19916;-83
2023/11/20 02:22:19;;;;;;;6.78;4.85;;;;;;;8.91;57.45;100886.25;5098144;28;20043;-82
2023/11/20 02:25:11;;;;;;;;;;;;;;;9.25;56.71;100881.22;5098785;28;20047;-83
2023/11/20 02:28:09;;;;;;;7.68;5.47;;;;;;;9.35;56.87;100874.78;5083836;28;19911;-82
2023/11/20 02:30:59;;;;;;;7.25;5.90;;;;;;;9.06;57.55;100868.88;5092343;28;20043;-82
2023/11/20 02:33:51;;;;;;;10.07;6.65;;;;;;;9.17;57.27;100870.28;5091323;28;20070;-84
2023/11/20 02:36:45;;;;;;;14.50;7.65;;;;;;;8.96;57.69;100864.47;5097914;28;20047;-83
2023/11/20 02:39:38;;;;;;;9.05;6.38;;;;;;;8.95;57.55;100860.94;5107294;28;20052;-84
2023/11/20 02:42:32;;;;;;;13.02;6.72;;;;;;;8.97;57.65;100866.06;5098145;28;20047;-84
2023/11/20 02:45:25;;;;;;;6.65;4.85;;;;;;;8.95;57.35;100868.28;5098063;28;20047;-84
2023/11/20 02:48:19;;;;;;;9.45;6.05;;;;;;;8.77;58.22;100861.84;5097734;28;20035;-84
2023/11/20 02:51:14;;;;;;;8.47;5.43;;;;;;;8.98;58.04;100857.66;5091909;28;20059;-84
2023/11/20 02:54:08;;;;;;;8.02;6.60;;;;;;;8.97;57.90;100847.91;5098193;28;20062;-84
2023/11/20 02:57:03;;;;;;;13.02;7.53;;;;;;;8.90;58.76;100858.31;5090963;28;20563;-84
2023/11/20 02:59:57;;;;;;;7.57;5.05;;;;;;;8.85;58.64;100855.72;5081436;28;20050;-84
2023/11/20 03:02:49;;;;;;;12.10;7.33;;;;;;;8.88;58.78;100857.03;5098031;28;20043;-84
2023/11/20 03:05:44;;;;;;;24.45;8.23;;;;;;;8.73;58.62;100851.88;5098057;28;20043;-84
2023/11/20 03:08:39;;;;;;;10.20;6.67;;;;;;;8.75;59.44;100849.66;5097596;28;20055;-83
2023/11/20 03:11:33;;;;;;;10.03;6.77;;;;;;;8.93;58.83;100857.75;5095646;28;20059;-84
2023/11/20 03:14:28;;;;;;;10.68;6.72;;;;;;;8.73;59.41;100849.19;5108952;28;20483;-82
2023/11/20 03:17:22;;;;;;;15.27;7.22;;;;;;;8.59;59.81;100862.69;5086611;28;20043;-83
2023/11/20 03:20:17;;;;;;;12.43;6.88;;;;;;;8.66;59.56;100848.75;5094272;28;20416;-82
2023/11/20 03:23:11;;;;;;;9.57;6.73;;;;;;;8.48;60.17;100850.44;5087513;28;20043;-84
2023/11/20 03:26:07;;;;;;;11.27;6.55;;;;;;;8.59;60.35;100849.13;5108713;28;20397;-85
2023/11/20 03:29:02;;;;;;;11.53;5.27;;;;;;;8.76;59.05;100849.38;5101577;28;20122;-85
2023/11/20 03:31:57;;;;;;;7.38;4.97;;;;;;;8.80;59.14;100844.97;5101699;28;20268;-85
2023/11/20 03:34:49;;;;;;;11.05;7.25;;;;;;;8.54;59.26;100852.75;5087459;28;20039;-84
2023/11/20 03:37:43;;;;;;;12.32;6.90;;;;;;;8.55;60.00;100856.25;5100887;28;20055;-84
2023/11/20 03:40:39;;;;;;;8.38;5.20;;;;;;;8.60;59.11;100845.34;5082747;28;20051;-83
2023/11/20 03:43:33;;;;;;;11.85;5.97;;;;;;;8.42;60.13;100838.88;5100926;28;20047;-81
2023/11/20 03:46:28;;;;;;;10.60;5.18;;;;;;;8.59;60.12;100847.22;5100773;28;20047;-86
2023/11/20 03:49:20;;;;;;;8.25;6.40;;;;;;;8.41;60.02;100845.41;5086170;28;20051;-86
2023/11/20 03:52:15;;;;;;;9.75;6.75;;;;;;;8.26;61.00;100842.13;5087135;28;20043;-85
2023/11/20 03:55:09;;;;;;;12.85;6.90;;;;;;;8.25;60.25;100843.22;5101151;28;20066;-85
2023/11/20 03:57:59;;;;;;;12.52;7.30;;;;;;;8.35;60.13;100837.66;5101585;28;20047;-84
2023/11/20 04:00:56;;;;;;;8.98;6.72;;;;;;;8.37;59.77;100838.97;5095101;28;20051;-85
2023/11/20 04:03:51;;;;;;;9.77;6.32;;;;;;;8.64;59.75;100837.41;5084724;28;20043;-84
2023/11/20 04:06:45;;;;;;;8.47;6.53;;;;;;;8.84;58.40;100837.03;5101097;28;20523;-85
2023/11/20 04:09:40;;;;;;;12.07;7.13;;;;;;;8.86;58.40;100837.53;5097507;28;20043;-83
2023/11/20 04:12:34;;;;;;;10.93;5.82;;;;;;;8.72;58.86;100839.44;5091494;28;20043;-83
2023/11/20 04:15:29;;;;;;;6.45;4.45;;;;;;;8.65;59.88;100842.53;5068412;28;20436;-83
2023/11/20 04:18:21;;;;;;;11.20;5.97;;;;;;;8.72;59.12;100837.53;5083615;28;20528;-85
2023/11/20 04:21:14;;;;;;;12.52;7.43;;;;;;;8.97;57.90;100828.91;5093539;28;20519;-85
2023/11/20 04:24:09;;;;;;;14.93;7.90;;;;;;;9.21;58.47;100825.97;5086149;28;20046;-84
2023/11/20 04:27:04;;;;;;;9.35;6.93;;;;;;;9.08;58.37;100829.50;5093369;28;20043;-85
2023/11/20 04:29:58;;;;;;;6.53;5.30;;;;;;;8.78;59.20;100830.09;5097706;28;20047;-84
2023/11/20 04:32:53;;;;;;;11.38;7.53;;;;;;;8.78;60.00;100833.63;5086376;28;20043;-84
2023/11/20 04:35:50;;;;;;;7.33;6.40;;;;;;;8.71;59.89;100824.28;5100222;28;20047;-84
2023/11/20 04:38:45;;;;;;;12.57;8.07;;;;;;;9.02;58.98;100828.81;5099587;28;20531;-85
2023/11/20 04:41:42;;;;;;;11.93;8.32;;;;;;;9.09;58.81;100833.84;5093343;28;20043;-84
2023/11/20 04:44:36;;;;;;;12.15;7.85;;;;;;;9.27;58.65;100832.09;5100144;28;20054;-84
2023/11/20 04:47:31;;;;;;;12.30;7.70;;;;;;;9.34;58.35;100836.03;5085704;28;20110;-82
2023/11/20 04:50:26;;;;;;;11.03;8.00;;;;;;;9.00;59.42;100839.13;5095960;28;20063;-83
2023/11/20 04:53:20;;;;;;;12.07;6.13;;;;;;;9.13;59.86;100832.13;5099503;28;20042;-82
2023/11/20 04:56:16;;;;;;;11.35;7.82;;;;;;;8.90;60.04;100833.09;5085719;28;20067;-83
2023/11/20 04:59:05;;;;;;;;;;;;;;;8.66;61.06;100843.34;5093263;28;20052;-83
2023/11/20 05:02:00;;;;;;;13.48;8.13;;;;;;;8.73;61.72;100838.34;5098026;28;19912;-83
2023/11/20 05:04:54;;;;;;;10.60;8.23;;;;;;;8.72;62.33;100836.72;5099190;28;20055;-83
2023/11/20 05:07:49;;;;;;;12.02;8.23;;;;;;;8.69;62.73;100831.88;5093322;28;20051;-84
2023/11/20 05:10:44;;;;;;;11.97;9.10;;;;;;;8.68;62.57;100824.88;5094422;28;20523;-84
2023/11/20 05:13:38;;;;;;;11.47;7.60;;;;;;;8.70;63.19;100837.00;5080848;28;20054;-84
2023/11/20 05:16:33;;;;;;;10.13;6.72;;;;;;;8.96;62.30;100832.72;5099186;28;20055;-83
2023/11/20 05:19:27;;;;;;;15.70;10.60;;;;;;;8.83;62.52;100830.81;5098180;28;20051;-84
2023/11/20 05:22:20;;;;;;;15.50;9.25;;;;;;;8.69;62.67;100829.16;5075785;28;20052;-85
2023/11/20 05:25:14;;;;;;;13.68;9.45;;;;;;;8.56;63.98;100818.03;5113099;28;20047;-84
2023/11/20 05:28:08;;;;;;;11.63;9.32;;;;;;;8.62;63.19;100824.16;5092138;28;20043;-83
2023/11/20 05:31:03;;;;;;;11.70;7.55;;;;;;;8.50;62.19;100816.50;5093350;28;20043;-84
2023/11/20 05:33:56;;;;;;;11.30;7.82;;;;;;;8.43;62.78;100813.38;5084452;28;20511;-85
2023/11/20 05:36:50;;;;;;;11.98;7.80;;;;;;;8.40;62.61;100813.97;5099014;28;20520;-85
2023/11/20 05:39:45;;;;;;;11.80;5.38;;;;;;;8.79;61.13;100816.22;5106917;28;20051;-84
2023/11/20 05:42:39;;;;;;;10.52;6.55;;;;;;;8.73;60.33;100806.63;5066361;28;20527;-85
2023/11/20 05:45:34;;;;;;;7.10;4.28;;;;;;;8.78;59.72;100811.13;5098734;28;20051;-86
2023/11/20 05:48:28;;;;;;;9.10;5.63;;;;;;;8.52;60.04;100806.19;5093869;28;20043;-85
2023/11/20 05:51:23;;;;;;;9.20;4.97;;;;;;;8.45;60.85;100810.38;5093565;28;20051;-86
2023/11/20 05:54:16;;;;;;;13.73;6.25;;;;;;;8.40;60.46;100808.56;5099806;28;20039;-85
2023/11/20 05:57:10;;;;;;;7.43;6.00;;;;;;;8.36;61.09;100812.97;5086112;28;20043;-83
2023/11/20 06:00:05;;;;;;;8.88;4.72;;;;;;;8.56;60.76;100817.22;5095475;28;20043;-83
2023/11/20 06:02:59;;;;;;;12.68;5.93;;;;;;;8.63;60.24;100817.66;5091968;28;20044;-84
2023/11/20 06:05:57;;;;;;;12.02;6.68;;;;;;;8.78;59.08;100817.34;5075841;28;20059;-85
2023/11/20 06:08:52;;;;;;;10.68;7.93;;;;;;;8.72;59.77;100823.97;5084575;28;20039;-83
2023/11/20 06:11:49;;;;;;;11.40;7.70;;;;;;;8.84;59.54;100826.16;5072327;28;20063;-85
2023/11/20 06:14:44;;;;;;;8.20;6.70;;;;;;;8.59;59.89;100827.47;5064629;28;20051;-85
2023/11/20 06:17:36;;;;;;;11.27;7.38;;;;;;;8.56;60.13;100814.50;5074618;28;20050;-83
2023/11/20 06:20:31;;;;;;;13.45;5.50;;;;;;;8.42;60.81;100814.50;5079903;28;20047;-84
2023/11/20 06:23:26;;;;;;;9.32;5.22;;;;;;;8.50;60.25;100819.22;5078727;28;20400;-84
2023/11/20 06:26:18;;;;;;;12.10;5.37;;;;;;;8.37;60.44;100814.59;5113016;28;20047;-84
2023/11/20 06:29:12;;;;;;;12.75;7.20;;;;;;;8.34;60.60;100815.16;5092267;28;20534;-86
2023/11/20 06:32:07;;;;;;;11.00;6.35;;;;;;;8.32;60.42;100811.97;5081189;28;20043;-85
2023/11/20 06:35:01;;;;;;;13.88;7.65;;;;;;;8.42;60.66;100817.22;5098309;28;20070;-84
2023/11/20 06:37:56;;;;;;;7.82;4.80;;;;;;;8.49;60.30;100817.59;5098033;28;20059;-84
2023/11/20 06:40:48;;;;;;;10.85;7.45;;;;;;;8.43;61.02;100818.03;5078889;28;20043;-84
2023/11/20 06:43:42;;;;;;;10.32;6.50;;;;;;;8.48;60.35;100820.63;5092638;28;20051;-84
2023/11/20 06:46:32;;;;;;;19.37;8.77;;;;;;;8.45;60.78;100816.59;5080473;28;20035;-84
2023/11/20 06:49:26;;;;;;;12.13;7.68;;;;;;;8.69;60.25;100818.31;5115407;28;20285;-83
2023/11/20 06:52:24;;;;;;;14.13;8.05;;;;;;;8.78;59.82;100827.41;5094594;28;20059;-84
2023/11/20 06:55:16;;;;;;;14.23;7.38;;;;;;;8.69;60.04;100823.75;5083252;28;20059;-84
2023/11/20 06:58:10;;;;;;;14.95;7.65;;;;;;;8.73;59.30;100822.06;5075597;28;20047;-84
2023/11/20 07:01:02;;;;;;;17.98;7.68;;;;;;;8.69;59.18;100816.44;5092760;28;20047;-83
2023/11/20 07:03:54;;;;;;;16.30;7.88;;;;;;;8.59;59.67;100833.69;5098403;28;20047;-83
2023/11/20 07:06:49;;;;;;;22.08;6.85;;;;;;;8.47;60.08;100835.28;5082713;28;20123;-83
2023/11/20 07:09:43;;;;;;;18.57;5.47;;;;;;;8.70;59.82;100838.91;5083954;28;20031;-85
2023/11/20 07:12:38;;;;;;;8.85;4.85;;;;;;;8.71;60.03;100835.13;5095022;28;20046;-83
2023/11/20 07:15:33;;;;;;;17.38;6.70;;;;;;;8.54;60.65;100844.63;5095754;28;20400;-82
2023/11/20 07:18:25;;;;;;;13.33;6.77;;;;;;;8.53;59.96;100847.66;5101249;28;20051;-83
2023/11/20 07:21:20;;;;;;;10.05;6.93;;;;;;;8.34;61.27;100846.88;5109577;28;20431;-85
2023/11/20 07:24:14;;;;;;;13.07;5.35;;;;;;;8.36;61.50;100852.81;5112441;28;20413;-85
2023/11/20 07:27:09;;;;;;;11.30;6.68;;;;;;;8.40;61.60;100853.81;5112120;28;20409;-86
2023/11/20 07:30:04;;;;;;;14.70;7.43;;;;;;;8.48;62.15;100851.22;5098012;28;20043;-85
2023/11/20 07:32:56;;;;;;;22.15;7.10;;;;;;;8.82;61.06;100858.22;5078099;28;20047;-76
2023/11/20 07:35:50;;;;;;;17.98;6.60;;;;;;;8.81;61.38;100860.13;5074242;28;20052;-77
2023/11/20 07:38:42;;;;;;;10.98;4.97;;;;;;;8.71;63.37;100859.50;5084786;28;20058;-78
2023/11/20 07:41:37;;;;;;;21.80;5.00;;;;;;;9.26;61.75;100863.84;5081593;28;20047;-81
2023/11/20 07:44:30;;;;;;;6.97;4.35;;;;;;;10.64;61.31;100865.03;5083634;28;20048;-80
2023/11/20 07:47:21;;;;;;;9.07;4.68;;;;;;;11.90;56.63;100857.88;5092117;28;20047;-80
2023/11/20 07:50:13;;;;;;;12.60;5.30;;;;;;;12.60;53.99;100843.03;5082701;28;20043;-81
2023/11/20 07:53:05;;;;;;;8.68;4.90;;;;;;;13.11;52.36;100847.50;5081896;28;20047;-81
2023/11/20 07:55:59;;;;;;;12.43;4.85;;;;;;;12.88;52.14;100846.16;5073871;28;20040;-80
2023/11/20 07:58:52;;;;;;;7.77;5.03;;;;;;;12.95;50.66;100860.13;5096857;28;20051;-79
2023/11/20 08:01:44;;;;;;;14.75;5.20;;;;;;;13.35;51.13;100849.66;5091154;28;20515;-83
2023/11/20 08:04:38;;;;;;;11.68;6.07;;;;;;;13.47;50.33;100858.75;5109389;28;20044;-81
2023/11/20 08:07:33;;;;;;;11.37;6.47;;;;;;;11.71;54.55;100847.28;5092452;28;20039;-83
2023/11/20 08:10:28;;;;;;;15.37;6.60;;;;;;;11.50;55.86;100849.00;5100679;28;20301;-83
2023/11/20 08:13:25;;;;;;;22.75;8.85;;;;;;;11.06;57.97;100842.66;5088139;28;20273;-82
2023/11/20 08:16:20;;;;;;;16.98;7.60;;;;;;;10.99;58.93;100839.59;5108049;28;20047;-83
2023/11/20 08:19:14;;;;;;;9.37;5.47;;;;;;;10.83;58.92;100832.97;5107718;28;20043;-82
2023/11/20 08:22:07;;;;;;;23.38;8.52;;;;;;;10.82;60.41;100831.34;5077513;28;20067;-83
2023/11/20 08:25:01;;;;;;;17.75;7.82;;;;;;;10.95;59.72;100837.81;5088139;28;20047;-84
2023/11/20 08:27:56;;;;;;;16.70;8.20;;;;;;;11.30;57.77;100828.63;5090108;28;20051;-82
2023/11/20 08:30:50;;;;;;;12.17;6.63;;;;;;;11.39;57.47;100828.63;5105435;28;20039;-82
2023/11/20 08:33:45;;;;;;;13.73;8.13;;;;;;;11.36;57.79;100849.16;5095307;28;20043;-82
2023/11/20 08:36:39;;;;;;;15.45;8.13;;;;;;;11.33;57.90;100827.19;5098986;28;20043;-83
2023/11/20 08:39:34;;;;;;;9.98;6.15;;;;;;;11.25;58.09;100827.97;5111342;28;20051;-82
2023/11/20 08:42:26;;;;;;;15.10;8.85;;;;;;;11.26;58.08;100832.31;5100724;28;20409;-80
2023/11/20 08:45:20;;;;;;;21.45;9.27;;;;;;;11.34;58.18;100842.41;5094622;28;20412;-79
2023/11/20 08:48:15;;;;;;;17.57;9.23;;;;;;;11.47;57.92;100846.94;5108755;28;20046;-79
2023/11/20 08:51:09;;;;;;;29.08;9.68;;;;;;;11.61;57.86;100833.97;5091581;28;20308;-80
2023/11/20 08:54:03;;;;;;;29.52;11.45;;;;;;;11.66;57.72;100822.13;5086008;28;20039;-79
2023/11/20 08:56:58;;;;;;;28.73;9.77;;;;;;;11.71;57.53;100825.47;5088291;28;20524;-80
2023/11/20 08:59:48;;;;;;;21.67;9.70;;;;;;;11.84;57.69;100827.28;5098092;28;20047;-79
2023/11/20 09:02:42;;;;;;;26.73;10.30;;;;;;;11.83;57.29;100819.44;5092530;28;20043;-79
2023/11/20 09:05:37;;;;;;;16.87;11.60;;;;;;;11.78;58.12;100820.41;5093643;28;20052;-80
2023/11/20 09:08:32;;;;;;;27.90;11.37;;;;;;;11.89;57.92;100829.84;5096059;28;20750;-81
2023/11/20 09:11:31;;;;;;;25.90;11.50;;;;;;;12.02;57.43;100830.81;5092220;28;20048;-80
2023/11/20 09:14:23;;;;;;;26.45;12.02;;;;;;;11.92;57.63;100826.47;5094022;28;20044;-81
2023/11/20 09:17:17;;;;;;;19.15;12.15;;;;;;;11.88;58.12;100820.09;5093304;28;20040;-81
2023/11/20 09:20:14;;;;;;;13.87;9.13;;;;;;;11.80;58.25;100825.50;5093048;28;20409;-80
2023/11/20 09:23:06;;;;;;;23.42;12.60;;;;;;;11.83;58.82;100820.25;5107901;28;20047;-82
2023/11/20 09:25:55;;;;;;;20.23;12.88;;;;;;;11.89;58.21;100818.13;5091302;28;20044;-80
2023/11/20 09:28:50;;;;;;;21.17;13.55;;;;;;;12.09;57.85;100808.53;5104300;28;20039;-81
2023/11/20 09:31:46;;;;;;;19.67;12.87;;;;;;;12.16;57.92;100815.06;5090749;28;20036;-81
2023/11/20 09:34:38;;;;;;;;;;;;;;;11.93;58.13;100806.28;5095011;28;20036;-79
2023/11/20 09:37:31;;;;;;;22.50;13.70;;;;;;;11.85;58.67;100812.53;5096828;28;19912;-82
2023/11/20 09:40:23;;;;;;;26.92;14.25;;;;;;;11.70;59.52;100809.44;5090760;28;20045;-82
2023/11/20 09:43:19;;;;;;;26.48;15.57;;;;;;;11.66;59.76;100803.06;5090524;28;20500;-81
2023/11/20 09:46:20;;;;;;;26.65;15.30;;;;;;;11.76;59.25;100798.13;5107733;28;20481;-80
2023/11/20 09:49:20;;;;;;;23.02;15.00;;;;;;;12.04;58.46;100778.72;5095506;28;20036;-80
2023/11/20 09:52:13;;;;;;;22.90;15.15;;;;;;;12.33;57.09;100785.06;5084238;28;20040;-83
2023/11/20 09:55:10;;;;;;;21.95;13.93;;;;;;;12.18;57.72;100782.03;5093512;28;20036;-81
2023/11/20 09:58:05;;;;;;;20.85;15.40;;;;;;;12.37;57.60;100787.91;5092978;28;20044;-80
2023/11/20 10:01:01;;;;;;;21.37;12.53;;;;;;;12.46;57.35;100793.34;5100097;28;20049;-83
2023/11/20 10:03:59;;;;;;;22.85;15.93;;;;;;;12.52;56.47;100781.94;5082951;28;20048;-81
2023/11/20 10:06:55;;;;;;;25.77;15.77;;;;;;;12.05;57.95;100797.44;5090010;28;20501;-83
2023/11/20 10:09:53;;;;;;;25.38;15.20;;;;;;;11.82;58.71;100804.22;5088657;28;20036;-82
2023/11/20 10:12:48;;;;;;;25.45;14.40;;;;;;;11.71;59.12;100790.06;5101242;28;20058;-82
2023/11/20 10:15:49;;;;;;;16.00;12.05;;;;;;;11.65;59.42;100790.53;5090330;28;20032;-81
2023/11/20 10:18:43;;;;;;;24.02;14.98;;;;;;;11.64;59.21;100788.94;5096121;28;20052;-81
2023/11/20 10:21:39;;;;;;;25.48;14.93;;;;;;;11.54;59.31;100784.59;5088074;28;20036;-81
2023/11/20 10:24:31;;;;;;;;;;;;;;;11.42;60.26;100777.09;5094877;28;20032;-82
2023/11/20 10:27:23;;;;;;;24.13;15.73;;;;;;;11.38;60.33;100759.78;5079422;28;20300;-82
2023/11/20 10:30:17;;;;;;;30.38;16.20;;;;;;;11.32;60.07;100749.38;5083121;28;20032;-82
2023/11/20 10:33:19;;;;;;;23.03;12.50;;;;;;;11.26;60.56;100742.47;5096097;28;20044;-82
2023/11/20 10:36:18;;;;;;;22.75;15.57;;;;;;;11.24;60.83;100745.50;5092786;28;20270;-81
2023/11/20 10:39:11;;;;;;;25.42;16.77;;;;;;;11.30;59.83;100757.84;5106983;28;20044;-82
2023/11/20 10:42:01;;;;;;;25.60;14.82;;;;;;;11.39;59.71;100749.69;5080540;28;20421;-81
2023/11/20 10:44:56;;;;;;;26.00;16.85;;;;;;;11.45;59.29;100748.41;5073032;28;20036;-81
2023/11/20 10:47:48;;;;;;;27.58;17.45;;;;;;;11.41;58.27;100740.09;5084051;28;20032;-80
2023/11/20 10:50:42;;;;;;;31.20;16.25;;;;;;;11.51;56.26;100731.59;5080883;28;20028;-79
2023/11/20 10:53:38;;;;;;;30.48;17.95;;;;;;;11.56;54.59;100727.91;5092746;28;20032;-81
2023/11/20 10:56:36;;;;;;;28.65;17.75;;;;;;;11.60;54.50;100726.13;5106729;28;20040;-80
2023/11/20 10:59:30;;;;;;;29.45;18.30;;;;;;;11.63;54.29;100728.22;5076641;28;20028;-80
2023/11/20 11:02:28;;;;;;;31.58;18.65;;;;;;;11.68;55.31;100710.94;5102423;28;20032;-80
2023/11/20 11:05:23;;;;;;;32.15;19.05;;;;;;;11.70;55.38;100698.56;5102457;28;20032;-82
2023/11/20 11:08:13;;;;;;;;;;;;;;;11.67;55.61;100691.06;5085154;28;20036;-82
2023/11/20 11:11:08;;;;;;;30.67;18.88;;;;;;;11.56;56.07;100678.88;5085299;28;20312;-81
2023/11/20 11:14:03;;;;;;;22.42;15.52;;;;;;;11.71;55.80;100692.00;5084208;28;20040;-80
2023/11/20 11:17:23;;;;;;;30.23;18.57;;;;;;;11.76;55.45;100683.69;5071072;28;20040;-80
2023/11/20 11:20:16;;;;;;;28.50;19.25;;;;;;;11.78;55.86;100680.66;5091555;28;20040;-81
2023/11/20 11:23:12;;;;;;;23.17;14.00;;;;;;;11.71;55.80;100672.94;5091654;28;20040;-80
2023/11/20 11:26:40;;;;;;;29.25;19.45;;;;;;;11.75;55.49;100676.63;5091640;28;20040;-81
2023/11/20 11:29:35;;;;;;;29.60;18.98;;;;;;;11.79;55.88;100669.41;5096124;28;20036;-79
2023/11/20 11:32:56;;;;;;;27.57;15.80;;;;;;;11.88;55.66;100664.78;5092969;28;20032;-80
2023/11/20 11:36:08;;;;;;;32.28;20.95;;;;;;;11.91;55.82;100666.03;5088146;28;20037;-81
2023/11/20 11:39:11;;;;;;;29.73;20.63;;;;;;;11.91;55.98;100663.31;5092855;28;20412;-80
2023/11/20 11:42:26;;;;;;;34.92;21.40;;;;;;;11.86;56.54;100655.31;5076322;28;20041;-80
2023/11/20 11:45:23;;;;;;;26.88;18.63;;;;;;;11.82;56.69;100638.81;5083012;28;20048;-81
2023/11/20 11:48:19;;;;;;;33.13;21.80;;;;;;;11.90;56.78;100629.00;5093000;28;20044;-79
2023/11/20 11:51:23;;;;;;;33.93;19.97;;;;;;;11.99;56.28;100637.94;5095041;28;20036;-80
2023/11/20 11:54:19;;;;;;;29.05;19.17;;;;;;;12.04;55.89;100628.81;5107041;28;20043;-81
2023/11/20 11:57:25;;;;;;;31.57;19.57;;;;;;;12.14;55.92;100612.88;5093733;28;20036;-80
2023/11/20 12:00:20;;;;;;;25.55;15.48;;;;;;;12.21;55.81;100604.97;5107706;28;20040;-80
2023/11/20 12:03:30;;;;;;;29.73;18.17;;;;;;;12.24;55.64;100603.53;5093311;28;20044;-81
2023/11/20 12:06:22;;;;;;;37.47;20.40;;;;;;;12.32;55.38;100597.22;5109832;28;20036;-80
2023/11/20 12:09:17;;;;;;;30.92;19.75;;;;;;;12.40;55.53;100596.38;5094361;28;20040;-80
2023/11/20 12:12:11;;;;;;;28.30;19.27;;;;;;;12.33;55.50;100591.47;5091881;28;20040;-80
2023/11/20 12:15:03;;;;;;;31.20;20.17;;;;;;;12.34;55.38;100592.25;5094933;28;20040;-80
2023/11/20 12:17:59;;;;;;;32.80;19.98;;;;;;;12.42;55.83;100594.91;5094920;28;20032;-79
2023/11/20 12:20:58;;;;;;;34.88;21.98;;;;;;;12.53;55.65;100592.63;5094333;28;20044;-80
2023/11/20 12:23:48;;;;;;;31.88;20.13;;;;;;;12.53;55.30;100591.81;5095200;28;20527;-80
2023/11/20 12:26:43;;;;;;;36.70;20.70;;;;;;;12.53;55.47;100595.34;5103538;28;20044;-80
2023/11/20 12:29:33;;;;;;;30.43;20.30;;;;;;;12.55;55.79;100587.59;5086406;28;20028;-80
2023/11/20 12:32:23;;;;;;;32.75;22.70;;;;;;;12.50;56.40;100587.00;5097403;28;20040;-80
2023/11/20 12:35:17;;;;;;;31.02;21.75;;;;;;;12.30;56.40;100581.19;5093730;28;20045;-80
2023/11/20 12:38:12;;;;;;;23.45;16.77;;;;;;;12.41;56.63;100576.97;5078993;28;20059;-81
2023/11/20 12:41:09;;;;;;;34.57;22.77;;;;;;;12.61;56.36;100561.72;5093535;28;20500;-81
2023/11/20 12:44:01;;;;;;;26.13;17.57;;;;;;;12.67;56.14;100568.59;5083129;28;20044;-81
2023/11/20 12:46:56;;;;;;;22.10;17.00;;;;;;;12.82;56.48;100554.34;5093020;28;20036;-81
2023/11/20 12:49:45;;;;;;;32.67;21.88;;;;;;;12.96;56.12;100566.91;5095254;28;20413;-80
2023/11/20 12:52:38;;;;;;;29.58;21.13;;;;;;;13.06;55.90;100570.03;5095344;28;20043;-80
2023/11/20 12:55:33;;;;;;;29.17;21.58;;;;;;;13.16;55.38;100571.56;5081441;28;20040;-81
2023/11/20 12:58:22;;;;;;;28.67;19.63;;;;;;;13.19;55.09;100562.72;5108501;28;20439;-81
2023/11/20 13:01:17;;;;;;;28.73;20.75;;;;;;;13.12;55.65;100557.81;5093664;28;20048;-81
2023/11/20 13:04:09;;;;;;;26.63;16.63;;;;;;;13.12;55.21;100563.25;5110367;28;20528;-80
2023/11/20 13:07:02;;;;;;;34.30;20.15;;;;;;;13.20;55.78;100556.13;5107484;28;20036;-80
2023/11/20 13:09:57;;;;;;;38.67;21.40;;;;;;;13.16;55.73;100555.19;5093798;28;20037;-81
2023/11/20 13:12:52;;;;;;;29.70;20.60;;;;;;;13.18;56.07;100559.19;5087100;28;20036;-81
2023/11/20 13:15:48;;;;;;;37.67;22.42;;;;;;;13.16;55.83;100545.06;5085950;28;20036;-81
2023/11/20 13:18:48;;;;;;;31.88;21.35;;;;;;;13.13;56.19;100540.28;5095533;28;20032;-81
2023/11/20 13:21:42;;;;;;;32.35;20.60;;;;;;;13.15;56.11;100534.50;5100972;28;20044;-81
2023/11/20 13:24:47;;;;;;;31.35;21.63;;;;;;;13.15;56.23;100534.50;5085630;28;20059;-81
2023/11/20 13:27:42;;;;;;;22.55;15.98;;;;;;;13.16;56.54;100533.34;5087147;28;20036;-81